Time;durP1;ratioP1;P1;durP2;ratioP2;P2;SDS_P1;SDS_P2;PMS_P1;PMS_P2;Temp;Humidity;BMP_temperature;BMP_pressure;BME280_temperature;BME280_humidity;BME280_pressure;Samples;Min_cycle;Max_cycle;Signal;HPM_P1;HPM_P2
2022/10/01 00:00:55;;;;;;;11.65;8.50;;;13.60;99.90;;;;;;5055387;28;20054;-71
2022/10/01 00:03:23;;;;;;;13.27;9.30;;;13.60;99.90;;;;;;5055612;28;20112;-70
2022/10/01 00:06:03;;;;;;;12.48;7.82;;;13.60;99.90;;;;;;5054019;28;20106;-71
2022/10/01 00:08:30;;;;;;;10.82;8.00;;;13.60;99.90;;;;;;5055405;28;20025;-71
2022/10/01 00:10:55;;;;;;;11.50;8.23;;;13.60;99.90;;;;;;5055196;28;20028;-71
2022/10/01 00:13:22;;;;;;;13.45;8.50;;;13.60;99.90;;;;;;5054843;28;20037;-71
2022/10/01 00:15:47;;;;;;;13.32;8.77;;;13.60;99.90;;;;;;5055277;28;20071;-71
2022/10/01 00:18:13;;;;;;;12.35;8.93;;;13.60;99.90;;;;;;5054525;28;20021;-71
2022/10/01 00:20:42;;;;;;;13.35;8.48;;;13.60;99.90;;;;;;5055088;28;20033;-71
2022/10/01 00:23:09;;;;;;;12.85;8.35;;;13.60;99.90;;;;;;5054541;28;20037;-71
2022/10/01 00:25:35;;;;;;;12.00;8.63;;;13.60;99.90;;;;;;5054984;28;20029;-71
2022/10/01 00:28:00;;;;;;;11.23;7.90;;;13.60;99.90;;;;;;5054583;28;20079;-71
2022/10/01 00:30:26;;;;;;;14.90;8.52;;;13.70;99.90;;;;;;5054579;28;20346;-71
2022/10/01 00:32:55;;;;;;;12.77;8.63;;;13.70;99.90;;;;;;5053319;28;20439;-72
2022/10/01 00:35:21;;;;;;;14.80;9.88;;;13.70;99.90;;;;;;5055052;28;20083;-71
2022/10/01 00:37:51;;;;;;;14.27;9.25;;;13.70;99.90;;;;;;5054465;28;20032;-70
2022/10/01 00:40:18;;;;;;;13.05;8.95;;;13.70;99.90;;;;;;5054362;28;20051;-70
2022/10/01 00:42:44;;;;;;;12.63;8.77;;;13.70;99.90;;;;;;5054647;28;20029;-71
2022/10/01 00:45:13;;;;;;;12.95;9.35;;;13.70;99.90;;;;;;5053961;28;20060;-70
2022/10/01 00:47:49;;;;;;;12.57;9.10;;;13.70;99.90;;;;;;5054329;28;20346;-70
2022/10/01 00:50:27;;;;;;;16.00;9.45;;;13.70;99.90;;;;;;5054158;28;20078;-70
2022/10/01 00:52:58;;;;;;;13.45;9.57;;;13.60;99.90;;;;;;5054134;28;20056;-71
2022/10/01 00:55:25;;;;;;;12.90;8.93;;;13.60;99.90;;;;;;5054338;28;20025;-69
2022/10/01 00:57:53;;;;;;;13.65;8.90;;;13.60;99.90;;;;;;5054620;28;20037;-71
2022/10/01 01:00:19;;;;;;;14.80;10.32;;;13.60;99.90;;;;;;5053789;28;20029;-70
2022/10/01 01:02:44;;;;;;;19.13;10.35;;;13.60;99.90;;;;;;5054205;28;20074;-70
2022/10/01 01:05:12;;;;;;;13.48;9.32;;;13.60;99.90;;;;;;5053905;28;20104;-70
2022/10/01 01:07:43;;;;;;;16.10;10.35;;;13.60;99.90;;;;;;5054046;28;20584;-70
2022/10/01 01:10:10;;;;;;;15.30;9.95;;;13.60;99.90;;;;;;5053847;28;20107;-70
2022/10/01 01:13:03;;;;;;;16.92;9.85;;;13.60;99.90;;;;;;5053923;28;20037;-70
2022/10/01 01:15:47;;;;;;;14.32;9.60;;;13.60;99.90;;;;;;5054255;28;20029;-70
2022/10/01 01:18:12;;;;;;;13.52;9.15;;;13.60;99.90;;;;;;5053172;28;20033;-70
2022/10/01 01:20:44;;;;;;;13.93;9.45;;;13.60;99.90;;;;;;5053873;28;20025;-70
2022/10/01 01:23:15;;;;;;;14.52;9.55;;;13.60;99.90;;;;;;5053440;28;20107;-70
2022/10/01 01:26:01;;;;;;;14.43;10.13;;;13.60;99.90;;;;;;5053870;28;20029;-70
2022/10/01 01:28:52;;;;;;;14.63;9.80;;;13.60;99.90;;;;;;5053925;28;20052;-70
2022/10/01 01:31:24;;;;;;;15.30;9.65;;;13.60;99.90;;;;;;5052880;28;20053;-70
2022/10/01 01:33:52;;;;;;;15.68;10.88;;;13.70;99.90;;;;;;5053264;28;20393;-70
2022/10/01 01:36:25;;;;;;;14.57;10.20;;;13.60;99.90;;;;;;5053531;28;20040;-71
2022/10/01 01:38:55;;;;;;;16.27;10.82;;;13.70;99.90;;;;;;5053596;28;20021;-70
2022/10/01 01:41:25;;;;;;;15.10;10.40;;;13.60;99.90;;;;;;5053166;28;20363;-70
2022/10/01 01:43:53;;;;;;;14.77;10.02;;;13.70;99.90;;;;;;5053495;28;20257;-70
2022/10/01 01:46:19;;;;;;;14.60;10.82;;;13.70;99.90;;;;;;5053073;28;20063;-70
2022/10/01 01:48:48;;;;;;;16.92;10.95;;;13.70;99.90;;;;;;5053551;28;20025;-70
2022/10/01 01:51:31;;;;;;;14.88;10.45;;;13.70;99.90;;;;;;5052952;28;20495;-70
2022/10/01 01:53:57;;;;;;;18.50;11.63;;;13.70;99.90;;;;;;5053406;28;20366;-70
2022/10/01 01:56:23;;;;;;;15.45;10.98;;;13.70;99.90;;;;;;5053145;28;20055;-70
2022/10/01 01:58:50;;;;;;;16.73;11.95;;;13.80;99.90;;;;;;5052024;28;20029;-70
2022/10/01 02:01:38;;;;;;;19.83;11.57;;;13.70;99.90;;;;;;5052787;28;20092;-70
2022/10/01 02:04:19;;;;;;;17.33;11.60;;;13.80;99.90;;;;;;5052310;28;20379;-70
2022/10/01 02:07:27;;;;;;;17.88;12.13;;;13.80;99.90;;;;;;5053221;28;20053;-70
2022/10/01 02:10:14;;;;;;;18.80;11.63;;;13.80;99.90;;;;;;5052885;28;20029;-70
2022/10/01 02:13:00;;;;;;;17.88;12.55;;;13.80;99.90;;;;;;5053152;28;20034;-70
2022/10/01 02:15:34;;;;;;;19.02;12.18;;;13.80;99.90;;;;;;5052970;28;20029;-70
2022/10/01 02:18:21;;;;;;;18.02;12.27;;;13.80;99.90;;;;;;5052211;28;20021;-71
2022/10/01 02:21:08;;;;;;;17.27;12.52;;;13.80;99.90;;;;;;5053201;28;20025;-70
2022/10/01 02:23:50;;;;;;;17.77;11.80;;;13.80;99.90;;;;;;5052890;28;20384;-70
2022/10/01 02:26:18;;;;;;;;;;;13.90;99.90;;;;;;5052948;28;20472;-70
2022/10/01 02:28:46;;;;;;;17.85;12.43;;;13.90;99.90;;;;;;5053108;28;19927;-70
2022/10/01 02:31:14;;;;;;;18.77;11.43;;;13.90;99.90;;;;;;5052083;28;20053;-70
2022/10/01 02:33:41;;;;;;;20.48;12.80;;;13.90;99.90;;;;;;5052736;28;20037;-70
2022/10/01 02:36:09;;;;;;;18.20;11.60;;;13.90;99.90;;;;;;5052338;28;20025;-71
2022/10/01 02:38:37;;;;;;;19.60;11.82;;;13.90;99.90;;;;;;5052569;28;20075;-70
2022/10/01 02:41:07;;;;;;;19.25;11.27;;;13.90;99.90;;;;;;5051964;28;20408;-70
2022/10/01 02:43:44;;;;;;;20.48;11.23;;;13.90;99.90;;;;;;5052651;28;20028;-70
2022/10/01 02:46:20;;;;;;;19.50;12.57;;;13.90;99.90;;;;;;5052449;28;20033;-70
2022/10/01 02:48:47;;;;;;;17.20;11.02;;;13.90;99.90;;;;;;5052750;28;20025;-70
2022/10/01 02:51:39;;;;;;;17.20;10.55;;;13.90;99.90;;;;;;5052118;28;20037;-70
2022/10/01 02:54:41;;;;;;;15.68;10.75;;;14.00;99.90;;;;;;5051799;28;20044;-71
2022/10/01 02:57:21;;;;;;;17.10;11.20;;;13.90;99.90;;;;;;5051270;28;20033;-70
2022/10/01 02:59:48;;;;;;;18.58;12.32;;;13.90;99.90;;;;;;5052741;28;20381;-70
2022/10/01 03:02:13;;;;;;;22.17;11.48;;;13.90;99.90;;;;;;5052048;28;20043;-71
2022/10/01 03:04:39;;;;;;;19.08;11.30;;;13.90;99.90;;;;;;5052330;28;20463;-70
2022/10/01 03:07:05;;;;;;;20.08;11.80;;;13.90;99.90;;;;;;5052087;28;20469;-71
2022/10/01 03:09:31;;;;;;;17.02;10.70;;;14.00;99.90;;;;;;5052458;28;20025;-70
2022/10/01 03:11:58;;;;;;;17.23;11.02;;;14.00;99.90;;;;;;5052304;28;20086;-70
2022/10/01 03:14:24;;;;;;;16.10;10.63;;;14.00;99.90;;;;;;5051826;28;20309;-70
2022/10/01 03:16:50;;;;;;;17.83;11.10;;;14.00;99.90;;;;;;5051622;28;20025;-71
2022/10/01 03:19:16;;;;;;;18.55;11.50;;;14.00;99.90;;;;;;5051859;28;20079;-71
2022/10/01 03:21:41;;;;;;;16.33;9.98;;;14.00;99.90;;;;;;5050993;28;20501;-71
2022/10/01 03:24:07;;;;;;;15.73;10.50;;;14.00;99.90;;;;;;5051063;28;20025;-72
2022/10/01 03:26:33;;;;;;;16.08;9.68;;;14.00;99.90;;;;;;5052186;28;20060;-71
2022/10/01 03:28:58;;;;;;;14.63;9.27;;;14.00;99.90;;;;;;5052065;28;20028;-71
2022/10/01 03:31:24;;;;;;;16.98;8.52;;;14.00;99.90;;;;;;5054050;28;20045;-71
2022/10/01 03:33:50;;;;;;;11.63;8.02;;;14.00;99.90;;;;;;5056020;28;20037;-71
2022/10/01 03:36:16;;;;;;;12.65;8.02;;;14.00;99.90;;;;;;5055341;28;20021;-70
2022/10/01 03:38:41;;;;;;;12.15;8.02;;;14.00;99.90;;;;;;5055762;28;20024;-71
2022/10/01 03:41:07;;;;;;;12.82;8.38;;;14.00;99.90;;;;;;5055503;28;20029;-72
2022/10/01 03:43:33;;;;;;;10.30;7.50;;;14.00;99.90;;;;;;5055730;28;20080;-71
2022/10/01 03:46:00;;;;;;;14.10;8.60;;;14.00;99.90;;;;;;5055670;28;20421;-71
2022/10/01 03:48:26;;;;;;;12.43;7.63;;;14.00;99.90;;;;;;5055192;28;20033;-71
2022/10/01 03:50:56;;;;;;;11.25;7.00;;;14.00;99.90;;;;;;5055325;28;20190;-71
2022/10/01 03:53:23;;;;;;;10.07;6.80;;;14.00;99.90;;;;;;5055115;28;20048;-71
2022/10/01 03:55:49;;;;;;;11.88;7.30;;;14.00;99.90;;;;;;5055545;28;20079;-71
2022/10/01 03:58:15;;;;;;;11.05;7.47;;;14.00;99.90;;;;;;5055031;28;20021;-71
2022/10/01 04:00:43;;;;;;;10.07;7.13;;;14.00;99.90;;;;;;5055426;28;20424;-71
2022/10/01 04:03:08;;;;;;;10.02;7.35;;;14.00;99.90;;;;;;5054994;28;20040;-71
2022/10/01 04:05:34;;;;;;;11.32;7.22;;;14.00;99.90;;;;;;5055035;28;20021;-71
2022/10/01 04:08:00;;;;;;;11.30;6.95;;;14.00;99.90;;;;;;5055068;28;20432;-71
2022/10/01 04:10:25;;;;;;;9.13;7.03;;;14.00;99.90;;;;;;5054636;28;20028;-71
2022/10/01 04:15:35;;;;;;;14.70;7.90;;;14.00;99.90;;;;;;5055187;28;20548;-70
2022/10/01 04:18:04;;;;;;;10.32;6.65;;;13.90;99.90;;;;;;5055119;28;20132;-71
2022/10/01 04:20:30;;;;;;;12.77;7.20;;;13.90;99.90;;;;;;5054740;28;20029;-71
2022/10/01 04:22:56;;;;;;;15.45;7.10;;;13.90;99.90;;;;;;5055091;28;20024;-71
2022/10/01 04:25:21;;;;;;;14.15;7.28;;;13.90;99.90;;;;;;5054890;28;20479;-72
2022/10/01 04:28:13;;;;;;;10.93;7.00;;;13.90;99.90;;;;;;5055149;28;20023;-71
2022/10/01 04:30:43;;;;;;;12.15;7.38;;;13.90;99.90;;;;;;5053382;28;20520;-71
2022/10/01 04:33:14;;;;;;;11.82;7.47;;;13.90;99.90;;;;;;5054574;28;20465;-71
2022/10/01 04:35:40;;;;;;;12.50;7.93;;;13.90;99.90;;;;;;5055003;28;20072;-71
2022/10/01 04:38:11;;;;;;;11.00;6.68;;;13.90;99.90;;;;;;5054876;28;20465;-71
2022/10/01 04:40:37;;;;;;;;;;;13.90;99.90;;;;;;5054937;28;20434;-71
2022/10/01 04:43:04;;;;;;;12.07;6.22;;;13.90;99.90;;;;;;5053989;28;19954;-71
2022/10/01 04:45:31;;;;;;;10.82;6.80;;;13.90;99.90;;;;;;5054354;28;20358;-71
2022/10/01 04:47:58;;;;;;;11.10;6.75;;;13.80;99.90;;;;;;5054536;28;20517;-71
2022/10/01 04:50:25;;;;;;;9.23;6.30;;;13.90;99.90;;;;;;5054223;28;20021;-71
2022/10/01 04:52:52;;;;;;;10.32;6.57;;;13.90;99.90;;;;;;5054418;28;20037;-71
2022/10/01 04:55:19;;;;;;;11.00;6.88;;;13.90;99.90;;;;;;5054041;28;20021;-71
2022/10/01 04:57:45;;;;;;;10.45;6.43;;;13.90;99.90;;;;;;5054372;28;20049;-71
2022/10/01 05:00:14;;;;;;;9.70;6.65;;;13.90;99.90;;;;;;5054054;28;20473;-72
2022/10/01 05:02:44;;;;;;;11.13;7.43;;;13.90;99.90;;;;;;5054299;28;20070;-71
2022/10/01 05:05:10;;;;;;;10.52;7.15;;;13.90;99.90;;;;;;5054229;28;20032;-71
2022/10/01 05:07:36;;;;;;;10.13;7.13;;;13.90;99.90;;;;;;5053875;28;20031;-71
2022/10/01 05:10:01;;;;;;;12.27;7.30;;;13.90;99.90;;;;;;5053796;28;20509;-71
2022/10/01 05:12:27;;;;;;;9.40;6.78;;;13.90;99.90;;;;;;5053692;28;20119;-71
2022/10/01 05:14:54;;;;;;;10.48;7.10;;;13.90;99.90;;;;;;5053925;28;20033;-71
2022/10/01 05:17:20;;;;;;;12.52;7.63;;;13.90;99.90;;;;;;5053241;28;20025;-71
2022/10/01 05:19:46;;;;;;;12.75;7.20;;;13.90;99.90;;;;;;5053741;28;20036;-70
2022/10/01 05:22:13;;;;;;;11.38;6.97;;;13.90;99.90;;;;;;5054123;28;20141;-70
2022/10/01 05:24:39;;;;;;;10.15;7.50;;;13.90;99.90;;;;;;5054113;28;20107;-70
2022/10/01 05:27:09;;;;;;;11.95;7.68;;;13.90;99.90;;;;;;5053156;28;20505;-70
2022/10/01 05:29:35;;;;;;;11.18;7.30;;;13.80;99.90;;;;;;5053450;28;20444;-70
2022/10/01 05:32:00;;;;;;;10.00;7.25;;;13.90;99.90;;;;;;5053807;28;20084;-70
2022/10/01 05:34:26;;;;;;;12.63;7.78;;;13.90;99.90;;;;;;5051972;28;20063;-70
2022/10/01 05:36:52;;;;;;;11.63;7.00;;;13.90;99.90;;;;;;5053362;28;20060;-70
2022/10/01 05:39:17;;;;;;;9.93;6.72;;;13.80;99.90;;;;;;5053176;28;20029;-70
2022/10/01 05:41:43;;;;;;;10.00;6.55;;;13.80;99.90;;;;;;5053265;28;20028;-70
2022/10/01 05:44:08;;;;;;;10.90;6.93;;;13.80;99.90;;;;;;5053258;28;20091;-70
2022/10/01 05:46:34;;;;;;;9.75;5.80;;;13.80;99.90;;;;;;5053095;28;20029;-71
2022/10/01 05:48:59;;;;;;;10.52;7.30;;;13.80;99.90;;;;;;5053369;28;20036;-71
2022/10/01 05:51:26;;;;;;;12.00;7.55;;;13.80;99.90;;;;;;5052996;28;20377;-70
2022/10/01 05:53:57;;;;;;;11.27;7.35;;;13.80;99.90;;;;;;5052512;28;20037;-70
2022/10/01 05:56:24;;;;;;;10.35;6.85;;;13.80;99.90;;;;;;5052859;28;20025;-70
2022/10/01 05:58:50;;;;;;;9.65;6.75;;;13.90;99.90;;;;;;5053206;28;20028;-70
2022/10/01 06:01:15;;;;;;;10.75;6.70;;;13.90;99.90;;;;;;5052827;28;20029;-70
2022/10/01 06:03:41;;;;;;;10.55;6.45;;;13.90;99.90;;;;;;5053156;28;20072;-70
2022/10/01 06:06:07;;;;;;;10.93;6.53;;;13.90;99.90;;;;;;5053309;28;20029;-70
2022/10/01 06:08:34;;;;;;;11.30;7.05;;;13.90;99.90;;;;;;5052875;28;20029;-70
2022/10/01 06:11:01;;;;;;;13.52;7.45;;;13.90;99.90;;;;;;5051673;28;20104;-70
2022/10/01 06:13:28;;;;;;;14.80;6.65;;;13.90;99.90;;;;;;5052486;28;20032;-70
2022/10/01 06:15:54;;;;;;;8.95;6.50;;;14.00;99.90;;;;;;5052901;28;20029;-70
2022/10/01 06:18:19;;;;;;;11.70;7.15;;;14.00;99.90;;;;;;5052592;28;20031;-70
2022/10/01 06:20:45;;;;;;;12.30;7.13;;;14.00;99.90;;;;;;5053065;28;20031;-70
2022/10/01 06:23:13;;;;;;;8.93;5.78;;;14.00;99.90;;;;;;5052595;28;20021;-70
2022/10/01 06:25:40;;;;;;;11.68;6.40;;;14.00;99.90;;;;;;5052352;28;20052;-70
2022/10/01 06:28:08;;;;;;;8.73;5.95;;;14.00;99.90;;;;;;5052937;28;20029;-71
2022/10/01 06:30:36;;;;;;;8.90;6.13;;;14.00;99.90;;;;;;5052196;28;20036;-69
2022/10/01 06:33:07;;;;;;;8.70;6.35;;;14.10;99.90;;;;;;5052721;28;20465;-70
2022/10/01 06:35:33;;;;;;;;;;;14.10;99.90;;;;;;5052652;28;20044;-70
2022/10/01 06:38:03;;;;;;;9.02;6.07;;;14.10;99.90;;;;;;5052815;28;20005;-70
2022/10/01 06:40:30;;;;;;;9.85;6.57;;;14.10;99.90;;;;;;5052390;28;20021;-70
2022/10/01 06:42:57;;;;;;;9.02;5.97;;;14.10;99.90;;;;;;5052687;28;20029;-70
2022/10/01 06:45:27;;;;;;;10.65;7.18;;;14.20;99.90;;;;;;5052182;28;20037;-71
2022/10/01 06:47:58;;;;;;;11.23;6.32;;;14.20;99.90;;;;;;5052619;28;20036;-71
2022/10/01 06:50:24;;;;;;;9.93;6.55;;;14.20;99.90;;;;;;5052184;28;20112;-70
2022/10/01 06:52:51;;;;;;;9.25;6.32;;;14.20;99.90;;;;;;5052412;28;20037;-70
2022/10/01 06:55:22;;;;;;;7.32;5.72;;;14.20;99.90;;;;;;5052579;28;20116;-71
2022/10/01 06:57:57;;;;;;;12.40;6.13;;;14.20;99.90;;;;;;5052905;28;20036;-71
2022/10/01 07:00:23;;;;;;;10.68;5.85;;;14.20;99.90;;;;;;5052278;28;20067;-71
2022/10/01 07:02:48;;;;;;;8.90;5.85;;;14.20;99.90;;;;;;5052512;28;20041;-70
2022/10/01 07:05:14;;;;;;;9.38;5.85;;;14.20;99.90;;;;;;5054731;28;20029;-70
2022/10/01 07:07:40;;;;;;;9.93;7.07;;;14.20;99.90;;;;;;5056175;28;20052;-71
2022/10/01 07:10:08;;;;;;;7.80;5.68;;;14.30;99.90;;;;;;5056485;28;20029;-70
2022/10/01 07:12:35;;;;;;;10.23;6.10;;;14.30;99.90;;;;;;5055556;28;20473;-70
2022/10/01 07:15:01;;;;;;;8.70;5.75;;;14.40;99.90;;;;;;5056135;28;20048;-71
2022/10/01 07:17:27;;;;;;;6.90;5.13;;;14.50;99.90;;;;;;5055799;28;20484;-71
2022/10/01 07:19:53;;;;;;;6.55;4.82;;;14.50;99.90;;;;;;5056205;28;20029;-71
2022/10/01 07:22:19;;;;;;;12.55;5.80;;;14.50;99.90;;;;;;5055654;28;20021;-71
2022/10/01 07:24:45;;;;;;;10.48;5.40;;;14.50;99.90;;;;;;5055772;28;20051;-70
2022/10/01 07:27:12;;;;;;;9.80;5.45;;;14.50;99.90;;;;;;5055965;28;20033;-70
2022/10/01 07:29:37;;;;;;;6.32;4.95;;;14.50;99.90;;;;;;5055496;28;20440;-71
2022/10/01 07:32:07;;;;;;;9.23;5.32;;;14.60;99.90;;;;;;5055740;28;20045;-70
2022/10/01 07:34:34;;;;;;;7.93;5.18;;;14.50;99.90;;;;;;5055539;28;20029;-71
2022/10/01 07:37:01;;;;;;;7.43;5.10;;;14.60;99.90;;;;;;5056006;28;20028;-70
2022/10/01 07:39:26;;;;;;;6.20;4.72;;;14.60;99.90;;;;;;5055521;28;20055;-71
2022/10/01 07:41:52;;;;;;;7.13;5.40;;;14.60;99.90;;;;;;5055668;28;20037;-70
2022/10/01 07:44:18;;;;;;;8.40;5.65;;;14.60;99.90;;;;;;5055977;28;20052;-71
2022/10/01 07:46:45;;;;;;;8.60;6.20;;;14.70;99.90;;;;;;5055377;28;20029;-71
2022/10/01 07:49:11;;;;;;;9.50;5.85;;;14.70;99.90;;;;;;5055701;28;20111;-70
2022/10/01 07:51:37;;;;;;;10.02;5.40;;;14.70;99.90;;;;;;5055232;28;20484;-70
2022/10/01 07:54:03;;;;;;;10.73;5.55;;;14.70;99.90;;;;;;5055461;28;20385;-70
2022/10/01 07:56:29;;;;;;;11.43;5.88;;;14.70;99.90;;;;;;5055263;28;20036;-70
2022/10/01 07:58:56;;;;;;;9.57;5.32;;;14.70;99.90;;;;;;5054506;28;20025;-70
2022/10/01 08:01:21;;;;;;;8.38;5.28;;;14.70;99.90;;;;;;5055322;28;20176;-71
2022/10/01 08:03:48;;;;;;;6.80;4.57;;;14.80;99.90;;;;;;5055116;28;20083;-70
2022/10/01 08:06:14;;;;;;;7.53;5.40;;;14.90;99.90;;;;;;5055384;28;20060;-70
2022/10/01 08:08:40;;;;;;;9.35;5.78;;;14.90;99.90;;;;;;5055063;28;20105;-72
2022/10/01 08:11:08;;;;;;;6.50;4.97;;;15.00;99.90;;;;;;5055300;28;20384;-71
2022/10/01 08:13:34;;;;;;;8.60;5.70;;;15.10;99.90;;;;;;5054901;28;20060;-70
2022/10/01 08:16:02;;;;;;;11.07;4.88;;;15.10;99.90;;;;;;5054493;28;20179;-70
2022/10/01 08:18:28;;;;;;;9.90;5.45;;;15.20;99.90;;;;;;5054708;28;20017;-72
2022/10/01 08:20:54;;;;;;;8.90;5.53;;;15.20;99.90;;;;;;5055060;28;20113;-72
2022/10/01 08:23:20;;;;;;;9.10;5.63;;;15.20;99.90;;;;;;5055227;28;20048;-71
2022/10/01 08:25:46;;;;;;;7.15;4.75;;;15.20;99.90;;;;;;5054757;28;20065;-72
2022/10/01 08:28:13;;;;;;;5.60;4.10;;;15.20;99.90;;;;;;5055311;28;20086;-72
2022/10/01 08:30:40;;;;;;;8.48;4.63;;;15.20;99.90;;;;;;5054419;28;20036;-72
2022/10/01 08:33:08;;;;;;;6.28;4.40;;;15.30;99.90;;;;;;5053459;28;20078;-71
2022/10/01 08:35:36;;;;;;;8.18;4.70;;;15.30;99.90;;;;;;5054590;28;20112;-72
2022/10/01 08:38:04;;;;;;;7.13;4.70;;;15.40;99.90;;;;;;5054597;28;20425;-72
2022/10/01 08:40:35;;;;;;;18.10;5.15;;;15.40;99.90;;;;;;5054244;28;20033;-72
2022/10/01 08:43:37;;;;;;;13.10;5.13;;;15.40;99.90;;;;;;5054745;28;20032;-72
2022/10/01 08:46:13;;;;;;;6.13;3.88;;;15.40;99.90;;;;;;5053424;28;20403;-72
2022/10/01 08:49:00;;;;;;;7.47;4.65;;;15.40;99.90;;;;;;5054167;28;20116;-72
2022/10/01 08:51:31;;;;;;;6.38;3.65;;;15.50;99.90;;;;;;5054713;28;20135;-72
2022/10/01 08:54:21;;;;;;;6.15;3.92;;;15.50;99.90;;;;;;5054697;28;20037;-72
2022/10/01 08:56:47;;;;;;;6.45;3.63;;;15.50;99.90;;;;;;5054121;28;20040;-72
2022/10/01 08:59:21;;;;;;;5.82;3.72;;;15.50;99.90;;;;;;5054037;28;20037;-72
2022/10/01 09:01:48;;;;;;;6.70;3.55;;;15.50;99.90;;;;;;5054093;28;20032;-72
2022/10/01 09:04:14;;;;;;;5.63;4.03;;;15.50;99.90;;;;;;5054470;28;20025;-72
2022/10/01 09:06:40;;;;;;;4.53;3.67;;;15.50;99.90;;;;;;5053886;28;20056;-72
2022/10/01 09:09:08;;;;;;;5.70;3.55;;;15.40;99.90;;;;;;5054358;28;20056;-71
2022/10/01 09:11:43;;;;;;;5.63;3.80;;;15.50;99.90;;;;;;5053918;28;20027;-72
2022/10/01 09:14:47;;;;;;;4.65;3.60;;;15.50;99.90;;;;;;5053053;28;20033;-72
2022/10/01 09:17:40;;;;;;;7.28;4.00;;;15.50;99.90;;;;;;5043734;28;20558;-71
2022/10/01 09:20:25;;;;;;;4.28;3.30;;;15.50;99.90;;;;;;5053730;28;20487;-71
2022/10/01 09:23:01;;;;;;;5.97;3.95;;;15.50;99.90;;;;;;5052389;28;20029;-71
2022/10/01 09:25:27;;;;;;;9.73;4.28;;;15.60;99.90;;;;;;5053589;28;20104;-71
2022/10/01 09:28:20;;;;;;;4.82;3.45;;;15.60;99.90;;;;;;5052592;28;20043;-71
2022/10/01 09:31:16;;;;;;;6.97;3.80;;;15.60;99.90;;;;;;5053257;28;20569;-70
2022/10/01 09:34:01;;;;;;;5.13;3.72;;;15.60;99.90;;;;;;5053255;28;20394;-70
2022/10/01 09:36:36;;;;;;;6.32;3.72;;;15.60;99.90;;;;;;5053680;28;20078;-70
2022/10/01 09:39:11;;;;;;;4.88;3.50;;;15.70;99.90;;;;;;5053571;28;20064;-71
2022/10/01 09:41:37;;;;;;;4.65;3.55;;;15.70;99.70;;;;;;5053191;28;20032;-72
2022/10/01 09:44:04;;;;;;;6.05;3.63;;;15.70;99.90;;;;;;5053823;28;20029;-72
2022/10/01 09:46:30;;;;;;;7.35;3.72;;;15.80;99.90;;;;;;5053684;28;20063;-71
2022/10/01 09:48:59;;;;;;;5.82;3.40;;;15.80;99.50;;;;;;5053528;28;20489;-72
2022/10/01 09:51:34;;;;;;;5.82;3.42;;;15.80;99.40;;;;;;5054752;28;20099;-70
2022/10/01 09:54:53;;;;;;;5.05;3.47;;;15.80;99.60;;;;;;5054016;28;20051;-71
2022/10/01 09:57:32;;;;;;;4.43;3.33;;;15.80;99.90;;;;;;5031180;28;20034;-71
2022/10/01 10:00:11;;;;;;;6.15;3.15;;;15.80;99.30;;;;;;5053251;28;20025;-71
2022/10/01 10:02:43;;;;;;;5.25;3.20;;;15.80;99.30;;;;;;5052938;28;20444;-71
2022/10/01 10:05:20;;;;;;;4.93;3.17;;;15.80;98.90;;;;;;5053239;28;20029;-71
2022/10/01 10:07:50;;;;;;;5.60;3.50;;;15.90;98.90;;;;;;5053078;28;20025;-70
2022/10/01 10:10:27;;;;;;;4.97;3.40;;;15.80;99.00;;;;;;5053353;28;20493;-70
2022/10/01 10:13:03;;;;;;;5.63;3.60;;;15.90;99.00;;;;;;5052280;28;20416;-71
2022/10/01 10:15:31;;;;;;;4.82;3.22;;;15.90;99.00;;;;;;5053037;28;20033;-71
2022/10/01 10:18:11;;;;;;;5.10;3.53;;;15.90;99.10;;;;;;5052652;28;20055;-71
2022/10/01 10:20:40;;;;;;;7.75;3.78;;;16.00;99.20;;;;;;5052501;28;20025;-71
2022/10/01 10:23:17;;;;;;;6.72;4.18;;;16.00;99.30;;;;;;5051734;28;20420;-71
2022/10/01 10:25:42;;;;;;;8.65;5.40;;;16.10;99.40;;;;;;5052376;28;20032;-72
2022/10/01 10:28:22;;;;;;;8.13;5.55;;;16.20;99.90;;;;;;5052569;28;20040;-70
2022/10/01 10:30:52;;;;;;;8.95;5.80;;;16.30;99.90;;;;;;5052400;28;20083;-71
2022/10/01 10:33:20;;;;;;;13.15;6.22;;;16.30;99.90;;;;;;5052577;28;20041;-71
2022/10/01 10:36:04;;;;;;;10.77;5.57;;;16.40;99.90;;;;;;5052107;28;20362;-70
2022/10/01 10:38:33;;;;;;;12.32;5.15;;;16.50;99.90;;;;;;5052685;28;20036;-71
2022/10/01 10:40:59;;;;;;;8.82;5.72;;;16.50;99.90;;;;;;5052324;28;20029;-70
2022/10/01 10:43:30;;;;;;;12.32;5.85;;;16.60;99.90;;;;;;5052751;28;20083;-70
2022/10/01 10:45:57;;;;;;;9.38;6.45;;;16.60;99.90;;;;;;5052176;28;20491;-70
2022/10/01 10:48:43;;;;;;;8.05;5.22;;;16.70;99.90;;;;;;5052636;28;20048;-71
2022/10/01 10:51:11;;;;;;;9.65;5.88;;;16.80;99.90;;;;;;5052503;28;20029;-71
2022/10/01 10:53:43;;;;;;;9.20;5.38;;;16.90;99.90;;;;;;5050760;28;20421;-71
2022/10/01 10:56:21;;;;;;;;;;;17.00;99.90;;;;;;5052875;28;20450;-71
2022/10/01 10:58:49;;;;;;;8.07;5.85;;;17.00;99.90;;;;;;5050984;28;19912;-70
2022/10/01 11:01:20;;;;;;;7.57;4.65;;;17.10;99.90;;;;;;5051171;28;20488;-72
2022/10/01 11:03:54;;;;;;;7.72;5.35;;;17.10;99.90;;;;;;5052260;28;20474;-71
2022/10/01 11:06:20;;;;;;;8.25;5.90;;;17.10;99.90;;;;;;5052469;28;20055;-70
2022/10/01 11:08:56;;;;;;;11.85;5.47;;;17.20;99.90;;;;;;5052107;28;20105;-72
2022/10/01 11:12:04;;;;;;;8.45;5.68;;;17.20;99.90;;;;;;5052592;28;20021;-71
2022/10/01 11:14:56;;;;;;;10.02;5.45;;;17.20;99.90;;;;;;5052125;28;20445;-71
2022/10/01 11:17:37;;;;;;;7.50;4.75;;;17.20;99.90;;;;;;5050919;28;20377;-70
2022/10/01 11:20:34;;;;;;;6.60;4.40;;;17.20;99.80;;;;;;5051945;28;20441;-71
2022/10/01 11:23:09;;;;;;;5.63;4.28;;;17.10;99.90;;;;;;5052021;28;20103;-72
2022/10/01 11:25:52;;;;;;;5.50;3.90;;;17.10;99.50;;;;;;5052294;28;20061;-72
2022/10/01 11:28:21;;;;;;;6.43;4.40;;;17.10;99.90;;;;;;5052338;28;20029;-72
2022/10/01 11:31:16;;;;;;;7.35;4.72;;;17.10;99.90;;;;;;5051635;28;20053;-72
2022/10/01 11:34:16;;;;;;;7.35;4.20;;;17.20;99.90;;;;;;5051854;28;20392;-71
2022/10/01 11:37:12;;;;;;;7.57;4.85;;;17.20;99.90;;;;;;5050507;28;20033;-70
2022/10/01 11:39:41;;;;;;;7.80;4.75;;;17.20;99.90;;;;;;5054206;28;20457;-71
2022/10/01 11:42:13;;;;;;;6.90;4.40;;;17.20;99.90;;;;;;5052676;28;20462;-70
2022/10/01 11:44:45;;;;;;;6.00;3.95;;;17.20;99.90;;;;;;5052095;28;20025;-71
2022/10/01 11:47:30;;;;;;;7.40;4.95;;;17.30;99.90;;;;;;5052391;28;20103;-71
2022/10/01 11:49:59;;;;;;;5.00;4.00;;;17.30;99.90;;;;;;5051782;28;20052;-71
2022/10/01 11:52:28;;;;;;;6.20;4.20;;;17.30;99.90;;;;;;5054387;28;20043;-70
2022/10/01 11:58:49;;;;;;;5.50;3.85;;;17.30;99.90;;;;;;5055491;28;20033;-71
2022/10/01 12:00:40;;;;;;;5.53;3.45;;;17.40;99.10;;;;;;5055918;28;20056;-71
2022/10/01 12:03:21;;;;;;;4.10;3.25;;;17.40;98.80;;;;;;5055567;28;20032;-70
2022/10/01 12:05:49;;;;;;;5.97;4.25;;;17.40;98.10;;;;;;5056846;28;20112;-71
2022/10/01 12:08:27;;;;;;;3.97;3.13;;;17.50;98.30;;;;;;5057477;28;20033;-70
2022/10/01 12:10:59;;;;;;;4.90;3.45;;;17.50;98.40;;;;;;5057193;28;20025;-72
2022/10/01 12:13:35;;;;;;;4.53;3.67;;;17.50;98.30;;;;;;5057401;28;20033;-70
2022/10/01 12:16:23;;;;;;;5.75;3.67;;;17.60;98.50;;;;;;5057208;28;20029;-72
2022/10/01 12:18:54;;;;;;;4.63;3.58;;;17.70;98.40;;;;;;5057373;28;20060;-72
2022/10/01 12:21:28;;;;;;;4.43;3.28;;;17.70;98.30;;;;;;5057822;28;20074;-72
2022/10/01 12:24:02;;;;;;;4.70;3.42;;;17.70;98.30;;;;;;5057205;28;20040;-72
2022/10/01 12:26:46;;;;;;;4.35;3.28;;;17.60;98.40;;;;;;5057306;28;20017;-72
2022/10/01 12:29:38;;;;;;;4.22;2.78;;;17.60;98.90;;;;;;5058054;28;20025;-71
2022/10/01 12:32:20;;;;;;;5.07;3.22;;;17.60;98.80;;;;;;5037340;28;20084;-71
2022/10/01 12:35:04;;;;;;;4.57;3.13;;;17.60;98.60;;;;;;5057121;28;20450;-72
2022/10/01 12:37:46;;;;;;;3.72;2.85;;;17.60;98.70;;;;;;5055482;28;20033;-72
2022/10/01 12:40:46;;;;;;;6.50;2.78;;;17.60;98.30;;;;;;5054963;28;20071;-71
2022/10/01 12:43:36;;;;;;;3.47;3.03;;;17.70;98.60;;;;;;5040906;28;20041;-71
2022/10/01 12:46:20;;;;;;;3.92;2.75;;;17.60;98.70;;;;;;5054316;28;20113;-71
2022/10/01 12:49:01;;;;;;;5.32;3.60;;;17.70;98.80;;;;;;5054655;28;20057;-71
2022/10/01 12:51:42;;;;;;;;;;;17.70;98.40;;;;;;5055128;28;20027;-71
2022/10/01 12:54:42;;;;;;;3.03;2.72;;;17.70;98.50;;;;;;5054263;28;19928;-71
2022/10/01 12:57:20;;;;;;;3.67;2.92;;;17.70;98.50;;;;;;5054125;28;20390;-71
2022/10/01 13:00:04;;;;;;;4.20;3.22;;;17.70;98.70;;;;;;5054423;28;20495;-71
2022/10/01 13:02:54;;;;;;;3.88;2.90;;;17.80;98.60;;;;;;5054286;28;20039;-71
2022/10/01 13:05:19;;;;;;;3.95;3.20;;;17.80;98.80;;;;;;5054666;28;20029;-71
2022/10/01 13:08:16;;;;;;;5.18;3.08;;;17.80;98.90;;;;;;5054300;28;20147;-70
2022/10/01 13:10:56;;;;;;;4.60;3.28;;;17.80;98.80;;;;;;5054334;28;20025;-70